sensor_id;sensor_type;location;lat;lon;timestamp;P1;durP1;ratioP1;P2;durP2;ratioP2
20890;SDS011;10605;52.968;8.844;2022-08-03T00:01:36;5.82;;;4.68;;
20890;SDS011;10605;52.968;8.844;2022-08-03T00:04:04;5.15;;;4.63;;
20890;SDS011;10605;52.968;8.844;2022-08-03T00:06:30;4.97;;;4.57;;
20890;SDS011;10605;52.968;8.844;2022-08-03T00:08:56;4.85;;;4.45;;
20890;SDS011;10605;52.968;8.844;2022-08-03T00:11:22;5.35;;;4.85;;
20890;SDS011;10605;52.968;8.844;2022-08-03T00:13:47;6.95;;;4.50;;
20890;SDS011;10605;52.968;8.844;2022-08-03T00:16:16;6.80;;;5.38;;
20890;SDS011;10605;52.968;8.844;2022-08-03T00:18:42;5.72;;;5.22;;
20890;SDS011;10605;52.968;8.844;2022-08-03T00:21:08;4.60;;;4.20;;
20890;SDS011;10605;52.968;8.844;2022-08-03T00:23:34;8.02;;;4.30;;
20890;SDS011;10605;52.968;8.844;2022-08-03T00:26:00;6.00;;;4.15;;
20890;SDS011;10605;52.968;8.844;2022-08-03T00:28:26;4.93;;;4.50;;
20890;SDS011;10605;52.968;8.844;2022-08-03T00:30:52;4.40;;;4.10;;
20890;SDS011;10605;52.968;8.844;2022-08-03T00:33:20;6.18;;;4.43;;
20890;SDS011;10605;52.968;8.844;2022-08-03T00:35:46;4.93;;;4.35;;
20890;SDS011;10605;52.968;8.844;2022-08-03T00:38:12;4.72;;;4.43;;
20890;SDS011;10605;52.968;8.844;2022-08-03T00:40:37;4.70;;;4.30;;
20890;SDS011;10605;52.968;8.844;2022-08-03T00:43:04;4.95;;;3.75;;
20890;SDS011;10605;52.968;8.844;2022-08-03T00:45:34;4.68;;;4.15;;
20890;SDS011;10605;52.968;8.844;2022-08-03T00:48:01;5.10;;;4.70;;
20890;SDS011;10605;52.968;8.844;2022-08-03T00:50:29;5.10;;;4.30;;
20890;SDS011;10605;52.968;8.844;2022-08-03T00:52:58;5.18;;;4.80;;
20890;SDS011;10605;52.968;8.844;2022-08-03T00:55:25;10.40;;;4.85;;
20890;SDS011;10605;52.968;8.844;2022-08-03T00:57:51;4.70;;;4.30;;
20890;SDS011;10605;52.968;8.844;2022-08-03T01:00:19;5.50;;;4.82;;
20890;SDS011;10605;52.968;8.844;2022-08-03T01:02:46;4.85;;;4.45;;
20890;SDS011;10605;52.968;8.844;2022-08-03T01:05:12;4.50;;;4.20;;
20890;SDS011;10605;52.968;8.844;2022-08-03T01:19:07;4.75;;;4.30;;
20890;SDS011;10605;52.968;8.844;2022-08-03T01:24:46;5.72;;;5.10;;
20890;SDS011;10605;52.968;8.844;2022-08-03T01:27:22;6.22;;;5.70;;
20890;SDS011;10605;52.968;8.844;2022-08-03T01:29:58;5.55;;;5.13;;
20890;SDS011;10605;52.968;8.844;2022-08-03T01:32:27;5.50;;;5.10;;
20890;SDS011;10605;52.968;8.844;2022-08-03T01:35:06;5.75;;;5.13;;
20890;SDS011;10605;52.968;8.844;2022-08-03T01:37:36;8.25;;;4.82;;
20890;SDS011;10605;52.968;8.844;2022-08-03T01:40:06;7.25;;;5.32;;
20890;SDS011;10605;52.968;8.844;2022-08-03T01:42:33;5.85;;;5.38;;
20890;SDS011;10605;52.968;8.844;2022-08-03T01:45:00;5.68;;;5.28;;
20890;SDS011;10605;52.968;8.844;2022-08-03T01:47:28;6.18;;;5.13;;
20890;SDS011;10605;52.968;8.844;2022-08-03T01:49:55;6.05;;;5.45;;
20890;SDS011;10605;52.968;8.844;2022-08-03T01:52:22;6.63;;;5.68;;
20890;SDS011;10605;52.968;8.844;2022-08-03T01:54:50;7.65;;;5.85;;
20890;SDS011;10605;52.968;8.844;2022-08-03T01:57:17;6.05;;;5.50;;
20890;SDS011;10605;52.968;8.844;2022-08-03T01:59:45;5.82;;;5.40;;
20890;SDS011;10605;52.968;8.844;2022-08-03T02:02:13;6.43;;;5.88;;
20890;SDS011;10605;52.968;8.844;2022-08-03T02:04:41;6.43;;;5.55;;
20890;SDS011;10605;52.968;8.844;2022-08-03T02:07:08;6.75;;;6.07;;
20890;SDS011;10605;52.968;8.844;2022-08-03T02:09:39;6.18;;;5.57;;
20890;SDS011;10605;52.968;8.844;2022-08-03T02:12:08;6.72;;;6.22;;
20890;SDS011;10605;52.968;8.844;2022-08-03T02:14:36;5.93;;;5.28;;
20890;SDS011;10605;52.968;8.844;2022-08-03T02:17:05;6.18;;;5.78;;
20890;SDS011;10605;52.968;8.844;2022-08-03T02:19:32;6.15;;;5.70;;
20890;SDS011;10605;52.968;8.844;2022-08-03T02:21:58;7.05;;;6.38;;
20890;SDS011;10605;52.968;8.844;2022-08-03T02:24:24;7.75;;;7.05;;
20890;SDS011;10605;52.968;8.844;2022-08-03T02:26:51;8.30;;;5.55;;
20890;SDS011;10605;52.968;8.844;2022-08-03T02:29:21;5.55;;;5.07;;
20890;SDS011;10605;52.968;8.844;2022-08-03T02:31:49;5.72;;;5.32;;
20890;SDS011;10605;52.968;8.844;2022-08-03T02:34:16;6.07;;;5.72;;
20890;SDS011;10605;52.968;8.844;2022-08-03T02:36:45;6.38;;;5.88;;
20890;SDS011;10605;52.968;8.844;2022-08-03T02:39:15;6.03;;;5.50;;
20890;SDS011;10605;52.968;8.844;2022-08-03T02:41:46;7.55;;;6.60;;
20890;SDS011;10605;52.968;8.844;2022-08-03T02:44:14;6.22;;;5.72;;
20890;SDS011;10605;52.968;8.844;2022-08-03T02:46:44;9.27;;;6.10;;
20890;SDS011;10605;52.968;8.844;2022-08-03T02:49:13;7.57;;;6.88;;
20890;SDS011;10605;52.968;8.844;2022-08-03T02:51:42;7.13;;;6.55;;
20890;SDS011;10605;52.968;8.844;2022-08-03T02:54:11;7.13;;;6.68;;
20890;SDS011;10605;52.968;8.844;2022-08-03T02:56:42;7.05;;;6.45;;
20890;SDS011;10605;52.968;8.844;2022-08-03T02:59:09;7.13;;;6.53;;
20890;SDS011;10605;52.968;8.844;2022-08-03T03:01:36;7.20;;;6.50;;
20890;SDS011;10605;52.968;8.844;2022-08-03T03:04:03;6.90;;;6.30;;
20890;SDS011;10605;52.968;8.844;2022-08-03T03:06:30;6.80;;;6.40;;
20890;SDS011;10605;52.968;8.844;2022-08-03T03:08:56;8.07;;;7.18;;
20890;SDS011;10605;52.968;8.844;2022-08-03T03:11:23;8.13;;;7.60;;
20890;SDS011;10605;52.968;8.844;2022-08-03T03:13:50;8.30;;;7.70;;
20890;SDS011;10605;52.968;8.844;2022-08-03T03:16:16;8.00;;;7.50;;
20890;SDS011;10605;52.968;8.844;2022-08-03T03:18:43;8.40;;;7.70;;
20890;SDS011;10605;52.968;8.844;2022-08-03T03:21:10;7.88;;;7.28;;
20890;SDS011;10605;52.968;8.844;2022-08-03T03:23:38;7.97;;;7.47;;
20890;SDS011;10605;52.968;8.844;2022-08-03T03:26:05;7.90;;;7.35;;
20890;SDS011;10605;52.968;8.844;2022-08-03T03:28:32;8.20;;;7.50;;
20890;SDS011;10605;52.968;8.844;2022-08-03T03:31:01;7.65;;;6.55;;
20890;SDS011;10605;52.968;8.844;2022-08-03T03:33:28;7.72;;;7.05;;
20890;SDS011;10605;52.968;8.844;2022-08-03T03:35:53;8.25;;;7.50;;
20890;SDS011;10605;52.968;8.844;2022-08-03T03:38:20;8.18;;;7.57;;
20890;SDS011;10605;52.968;8.844;2022-08-03T03:40:45;8.40;;;7.80;;
20890;SDS011;10605;52.968;8.844;2022-08-03T03:43:11;10.70;;;8.20;;
20890;SDS011;10605;52.968;8.844;2022-08-03T03:45:39;9.95;;;9.02;;
20890;SDS011;10605;52.968;8.844;2022-08-03T03:48:07;9.70;;;8.80;;
20890;SDS011;10605;52.968;8.844;2022-08-03T03:50:34;10.07;;;8.68;;
20890;SDS011;10605;52.968;8.844;2022-08-03T03:53:02;9.20;;;8.30;;
20890;SDS011;10605;52.968;8.844;2022-08-03T03:55:28;9.90;;;8.73;;
20890;SDS011;10605;52.968;8.844;2022-08-03T03:57:54;10.45;;;8.57;;
20890;SDS011;10605;52.968;8.844;2022-08-03T04:00:20;9.70;;;8.60;;
20890;SDS011;10605;52.968;8.844;2022-08-03T04:02:47;8.57;;;7.72;;
20890;SDS011;10605;52.968;8.844;2022-08-03T04:05:13;7.97;;;7.28;;
20890;SDS011;10605;52.968;8.844;2022-08-03T04:08:02;10.57;;;9.23;;
20890;SDS011;10605;52.968;8.844;2022-08-03T04:13:39;9.52;;;8.60;;
20890;SDS011;10605;52.968;8.844;2022-08-03T04:16:15;8.07;;;7.57;;
20890;SDS011;10605;52.968;8.844;2022-08-03T04:18:45;7.53;;;7.13;;
20890;SDS011;10605;52.968;8.844;2022-08-03T04:21:15;9.52;;;8.50;;
20890;SDS011;10605;52.968;8.844;2022-08-03T04:23:44;8.20;;;7.20;;
20890;SDS011;10605;52.968;8.844;2022-08-03T04:26:14;7.68;;;7.05;;
20890;SDS011;10605;52.968;8.844;2022-08-03T04:28:45;8.75;;;6.55;;
20890;SDS011;10605;52.968;8.844;2022-08-03T04:31:12;8.25;;;7.40;;
20890;SDS011;10605;52.968;8.844;2022-08-03T04:33:39;7.28;;;6.68;;
20890;SDS011;10605;52.968;8.844;2022-08-03T04:36:08;8.07;;;7.30;;
20890;SDS011;10605;52.968;8.844;2022-08-03T04:38:37;7.43;;;7.03;;
20890;SDS011;10605;52.968;8.844;2022-08-03T04:41:08;7.40;;;6.90;;
20890;SDS011;10605;52.968;8.844;2022-08-03T04:43:34;7.55;;;7.05;;
20890;SDS011;10605;52.968;8.844;2022-08-03T04:46:03;6.53;;;6.13;;
20890;SDS011;10605;52.968;8.844;2022-08-03T04:48:30;7.22;;;6.63;;
20890;SDS011;10605;52.968;8.844;2022-08-03T04:50:56;7.43;;;6.82;;
20890;SDS011;10605;52.968;8.844;2022-08-03T04:53:24;14.25;;;6.63;;
20890;SDS011;10605;52.968;8.844;2022-08-03T04:55:50;9.55;;;6.25;;
20890;SDS011;10605;52.968;8.844;2022-08-03T04:58:15;6.85;;;6.15;;
20890;SDS011;10605;52.968;8.844;2022-08-03T05:00:41;9.65;;;5.85;;
20890;SDS011;10605;52.968;8.844;2022-08-03T05:03:09;6.07;;;4.88;;
20890;SDS011;10605;52.968;8.844;2022-08-03T05:05:35;6.00;;;5.60;;
20890;SDS011;10605;52.968;8.844;2022-08-03T05:08:00;6.03;;;5.63;;
20890;SDS011;10605;52.968;8.844;2022-08-03T05:10:26;6.00;;;5.40;;
20890;SDS011;10605;52.968;8.844;2022-08-03T05:12:52;6.97;;;5.05;;
20890;SDS011;10605;52.968;8.844;2022-08-03T05:15:18;8.52;;;5.18;;
20890;SDS011;10605;52.968;8.844;2022-08-03T05:17:43;5.20;;;4.80;;
20890;SDS011;10605;52.968;8.844;2022-08-03T05:20:09;4.85;;;4.45;;
20890;SDS011;10605;52.968;8.844;2022-08-03T05:22:35;5.97;;;4.30;;
20890;SDS011;10605;52.968;8.844;2022-08-03T05:25:01;4.88;;;4.32;;
20890;SDS011;10605;52.968;8.844;2022-08-03T05:27:27;4.50;;;4.18;;
20890;SDS011;10605;52.968;8.844;2022-08-03T05:29:52;6.32;;;4.40;;
20890;SDS011;10605;52.968;8.844;2022-08-03T05:32:18;3.63;;;3.42;;
20890;SDS011;10605;52.968;8.844;2022-08-03T05:34:44;4.43;;;4.03;;
20890;SDS011;10605;52.968;8.844;2022-08-03T05:37:10;6.50;;;4.05;;
20890;SDS011;10605;52.968;8.844;2022-08-03T05:39:35;3.67;;;3.38;;
20890;SDS011;10605;52.968;8.844;2022-08-03T05:42:02;5.38;;;3.88;;
20890;SDS011;10605;52.968;8.844;2022-08-03T05:44:28;3.75;;;3.42;;
20890;SDS011;10605;52.968;8.844;2022-08-03T05:46:54;3.55;;;3.25;;
20890;SDS011;10605;52.968;8.844;2022-08-03T05:49:20;9.75;;;3.33;;
20890;SDS011;10605;52.968;8.844;2022-08-03T05:51:46;3.83;;;3.50;;
20890;SDS011;10605;52.968;8.844;2022-08-03T05:54:11;4.47;;;3.10;;
20890;SDS011;10605;52.968;8.844;2022-08-03T05:56:37;4.03;;;2.92;;
20890;SDS011;10605;52.968;8.844;2022-08-03T05:59:05;4.97;;;2.80;;
20890;SDS011;10605;52.968;8.844;2022-08-03T06:01:30;5.40;;;3.10;;
20890;SDS011;10605;52.968;8.844;2022-08-03T06:03:57;4.68;;;2.90;;
20890;SDS011;10605;52.968;8.844;2022-08-03T06:06:23;4.03;;;2.97;;
20890;SDS011;10605;52.968;8.844;2022-08-03T06:08:49;3.95;;;2.92;;
20890;SDS011;10605;52.968;8.844;2022-08-03T06:11:15;3.22;;;2.90;;
20890;SDS011;10605;52.968;8.844;2022-08-03T06:13:41;3.30;;;3.00;;
20890;SDS011;10605;52.968;8.844;2022-08-03T06:16:07;9.98;;;2.88;;
20890;SDS011;10605;52.968;8.844;2022-08-03T06:18:33;2.67;;;2.47;;
20890;SDS011;10605;52.968;8.844;2022-08-03T06:21:00;3.00;;;2.80;;
20890;SDS011;10605;52.968;8.844;2022-08-03T06:23:25;4.68;;;2.65;;
20890;SDS011;10605;52.968;8.844;2022-08-03T06:25:51;2.92;;;2.33;;
20890;SDS011;10605;52.968;8.844;2022-08-03T06:28:17;4.65;;;2.20;;
20890;SDS011;10605;52.968;8.844;2022-08-03T06:30:43;2.85;;;2.63;;
20890;SDS011;10605;52.968;8.844;2022-08-03T06:33:09;4.80;;;2.33;;
20890;SDS011;10605;52.968;8.844;2022-08-03T06:35:34;3.60;;;2.70;;
20890;SDS011;10605;52.968;8.844;2022-08-03T06:38:00;13.43;;;2.15;;
20890;SDS011;10605;52.968;8.844;2022-08-03T06:40:26;2.22;;;2.03;;
20890;SDS011;10605;52.968;8.844;2022-08-03T06:42:59;3.65;;;2.53;;
20890;SDS011;10605;52.968;8.844;2022-08-03T06:45:25;2.63;;;2.10;;
20890;SDS011;10605;52.968;8.844;2022-08-03T06:48:25;2.10;;;2.00;;
20890;SDS011;10605;52.968;8.844;2022-08-03T06:50:44;4.30;;;2.33;;
20890;SDS011;10605;52.968;8.844;2022-08-03T06:53:10;2.38;;;2.10;;
20890;SDS011;10605;52.968;8.844;2022-08-03T06:55:36;4.07;;;2.38;;
20890;SDS011;10605;52.968;8.844;2022-08-03T06:58:02;4.22;;;1.83;;
20890;SDS011;10605;52.968;8.844;2022-08-03T07:00:27;5.35;;;2.38;;
20890;SDS011;10605;52.968;8.844;2022-08-03T07:02:54;4.72;;;2.70;;
20890;SDS011;10605;52.968;8.844;2022-08-03T07:05:23;5.35;;;2.00;;
20890;SDS011;10605;52.968;8.844;2022-08-03T07:07:49;5.65;;;1.95;;
20890;SDS011;10605;52.968;8.844;2022-08-03T07:10:15;5.53;;;2.42;;
20890;SDS011;10605;52.968;8.844;2022-08-03T07:12:41;6.55;;;1.95;;
20890;SDS011;10605;52.968;8.844;2022-08-03T07:15:07;3.38;;;2.03;;
20890;SDS011;10605;52.968;8.844;2022-08-03T07:17:34;3.17;;;1.92;;
20890;SDS011;10605;52.968;8.844;2022-08-03T07:20:01;4.13;;;2.28;;
20890;SDS011;10605;52.968;8.844;2022-08-03T07:22:28;3.35;;;1.90;;
20890;SDS011;10605;52.968;8.844;2022-08-03T07:24:57;4.10;;;2.03;;
20890;SDS011;10605;52.968;8.844;2022-08-03T07:27:23;6.45;;;1.85;;
20890;SDS011;10605;52.968;8.844;2022-08-03T07:29:51;3.90;;;2.10;;
20890;SDS011;10605;52.968;8.844;2022-08-03T07:32:17;5.60;;;1.70;;
20890;SDS011;10605;52.968;8.844;2022-08-03T07:34:42;15.45;;;2.03;;
20890;SDS011;10605;52.968;8.844;2022-08-03T07:37:08;4.13;;;1.83;;
20890;SDS011;10605;52.968;8.844;2022-08-03T07:39:34;4.30;;;1.55;;
20890;SDS011;10605;52.968;8.844;2022-08-03T07:42:02;4.85;;;2.10;;
20890;SDS011;10605;52.968;8.844;2022-08-03T07:44:29;8.68;;;1.70;;
20890;SDS011;10605;52.968;8.844;2022-08-03T07:46:55;3.50;;;2.25;;
20890;SDS011;10605;52.968;8.844;2022-08-03T07:49:21;6.00;;;2.00;;
20890;SDS011;10605;52.968;8.844;2022-08-03T07:51:47;4.47;;;1.75;;
20890;SDS011;10605;52.968;8.844;2022-08-03T07:54:32;2.25;;;1.80;;
20890;SDS011;10605;52.968;8.844;2022-08-03T07:56:58;2.25;;;1.30;;
20890;SDS011;10605;52.968;8.844;2022-08-03T07:59:23;7.45;;;1.60;;
20890;SDS011;10605;52.968;8.844;2022-08-03T08:01:49;3.10;;;1.80;;
20890;SDS011;10605;52.968;8.844;2022-08-03T08:04:17;2.53;;;1.65;;
20890;SDS011;10605;52.968;8.844;2022-08-03T08:06:43;6.63;;;1.70;;
20890;SDS011;10605;52.968;8.844;2022-08-03T08:09:11;4.38;;;1.77;;
20890;SDS011;10605;52.968;8.844;2022-08-03T08:11:37;6.75;;;1.88;;
20890;SDS011;10605;52.968;8.844;2022-08-03T08:14:03;4.88;;;1.30;;
20890;SDS011;10605;52.968;8.844;2022-08-03T08:16:29;6.13;;;1.50;;
20890;SDS011;10605;52.968;8.844;2022-08-03T08:18:55;7.38;;;1.33;;
20890;SDS011;10605;52.968;8.844;2022-08-03T08:21:21;6.50;;;1.38;;
20890;SDS011;10605;52.968;8.844;2022-08-03T08:23:46;4.70;;;1.80;;
20890;SDS011;10605;52.968;8.844;2022-08-03T08:26:12;7.20;;;1.10;;
20890;SDS011;10605;52.968;8.844;2022-08-03T08:28:38;6.10;;;1.55;;
20890;SDS011;10605;52.968;8.844;2022-08-03T08:31:04;8.32;;;1.98;;
20890;SDS011;10605;52.968;8.844;2022-08-03T08:33:29;10.35;;;1.63;;
20890;SDS011;10605;52.968;8.844;2022-08-03T08:35:56;4.78;;;1.70;;
20890;SDS011;10605;52.968;8.844;2022-08-03T08:38:22;3.20;;;1.42;;
20890;SDS011;10605;52.968;8.844;2022-08-03T08:40:50;8.30;;;1.20;;
20890;SDS011;10605;52.968;8.844;2022-08-03T08:43:19;12.70;;;1.77;;
20890;SDS011;10605;52.968;8.844;2022-08-03T08:45:45;4.72;;;1.25;;
20890;SDS011;10605;52.968;8.844;2022-08-03T08:48:21;3.90;;;1.33;;
20890;SDS011;10605;52.968;8.844;2022-08-03T08:50:51;11.82;;;1.33;;
20890;SDS011;10605;52.968;8.844;2022-08-03T08:53:18;2.28;;;1.10;;
20890;SDS011;10605;52.968;8.844;2022-08-03T08:55:45;3.95;;;1.70;;
20890;SDS011;10605;52.968;8.844;2022-08-03T08:58:12;1.70;;;1.25;;
20890;SDS011;10605;52.968;8.844;2022-08-03T09:00:41;3.22;;;1.35;;
20890;SDS011;10605;52.968;8.844;2022-08-03T09:03:09;1.65;;;1.13;;
20890;SDS011;10605;52.968;8.844;2022-08-03T09:05:36;11.23;;;1.73;;
20890;SDS011;10605;52.968;8.844;2022-08-03T09:08:04;4.00;;;1.52;;
20890;SDS011;10605;52.968;8.844;2022-08-03T09:10:30;7.20;;;1.70;;
20890;SDS011;10605;52.968;8.844;2022-08-03T09:12:56;10.95;;;2.08;;
20890;SDS011;10605;52.968;8.844;2022-08-03T09:15:23;11.77;;;1.83;;
20890;SDS011;10605;52.968;8.844;2022-08-03T09:17:51;5.32;;;1.30;;
20890;SDS011;10605;52.968;8.844;2022-08-03T09:20:19;3.88;;;1.70;;
20890;SDS011;10605;52.968;8.844;2022-08-03T09:22:53;5.50;;;1.15;;
20890;SDS011;10605;52.968;8.844;2022-08-03T09:25:26;6.40;;;1.90;;
20890;SDS011;10605;52.968;8.844;2022-08-03T09:28:10;6.10;;;1.13;;
20890;SDS011;10605;52.968;8.844;2022-08-03T09:30:44;3.95;;;1.30;;
20890;SDS011;10605;52.968;8.844;2022-08-03T09:33:22;7.50;;;1.33;;
20890;SDS011;10605;52.968;8.844;2022-08-03T09:35:48;17.77;;;1.77;;
20890;SDS011;10605;52.968;8.844;2022-08-03T09:38:18;7.60;;;1.42;;
20890;SDS011;10605;52.968;8.844;2022-08-03T09:40:49;2.85;;;1.10;;
20890;SDS011;10605;52.968;8.844;2022-08-03T09:43:16;1.50;;;1.40;;
20890;SDS011;10605;52.968;8.844;2022-08-03T09:45:42;4.60;;;1.35;;
20890;SDS011;10605;52.968;8.844;2022-08-03T09:48:28;7.30;;;1.42;;
20890;SDS011;10605;52.968;8.844;2022-08-03T09:50:55;7.18;;;1.50;;
20890;SDS011;10605;52.968;8.844;2022-08-03T09:53:23;4.05;;;1.60;;
20890;SDS011;10605;52.968;8.844;2022-08-03T09:55:53;10.18;;;1.55;;
20890;SDS011;10605;52.968;8.844;2022-08-03T09:58:21;10.88;;;2.03;;
20890;SDS011;10605;52.968;8.844;2022-08-03T10:01:00;10.70;;;1.77;;
20890;SDS011;10605;52.968;8.844;2022-08-03T10:03:29;8.88;;;1.45;;
20890;SDS011;10605;52.968;8.844;2022-08-03T10:05:57;3.83;;;1.42;;
20890;SDS011;10605;52.968;8.844;2022-08-03T10:08:23;3.25;;;1.33;;
20890;SDS011;10605;52.968;8.844;2022-08-03T10:10:50;5.38;;;1.42;;
20890;SDS011;10605;52.968;8.844;2022-08-03T10:13:21;4.40;;;1.70;;
20890;SDS011;10605;52.968;8.844;2022-08-03T10:15:47;4.28;;;1.60;;
20890;SDS011;10605;52.968;8.844;2022-08-03T10:18:14;3.35;;;1.38;;
20890;SDS011;10605;52.968;8.844;2022-08-03T10:20:48;10.68;;;1.15;;
20890;SDS011;10605;52.968;8.844;2022-08-03T10:23:23;3.38;;;1.40;;
20890;SDS011;10605;52.968;8.844;2022-08-03T10:25:51;4.35;;;1.50;;
20890;SDS011;10605;52.968;8.844;2022-08-03T10:28:25;6.32;;;1.38;;
20890;SDS011;10605;52.968;8.844;2022-08-03T10:31:03;6.47;;;1.52;;
20890;SDS011;10605;52.968;8.844;2022-08-03T10:33:33;4.28;;;1.60;;
20890;SDS011;10605;52.968;8.844;2022-08-03T10:36:01;1.88;;;1.30;;
20890;SDS011;10605;52.968;8.844;2022-08-03T10:38:37;4.18;;;1.20;;
20890;SDS011;10605;52.968;8.844;2022-08-03T10:41:10;1.92;;;1.27;;
20890;SDS011;10605;52.968;8.844;2022-08-03T10:43:46;1.50;;;1.20;;
20890;SDS011;10605;52.968;8.844;2022-08-03T10:46:18;19.60;;;2.20;;
20890;SDS011;10605;52.968;8.844;2022-08-03T10:48:45;5.72;;;1.48;;
20890;SDS011;10605;52.968;8.844;2022-08-03T10:51:12;2.55;;;1.45;;
20890;SDS011;10605;52.968;8.844;2022-08-03T10:53:39;6.55;;;1.20;;
20890;SDS011;10605;52.968;8.844;2022-08-03T10:59:17;4.82;;;1.50;;
20890;SDS011;10605;52.968;8.844;2022-08-03T11:01:48;6.25;;;1.33;;
20890;SDS011;10605;52.968;8.844;2022-08-03T11:04:20;4.75;;;1.00;;
20890;SDS011;10605;52.968;8.844;2022-08-03T11:06:54;5.50;;;1.33;;
20890;SDS011;10605;52.968;8.844;2022-08-03T11:09:48;10.27;;;2.08;;
20890;SDS011;10605;52.968;8.844;2022-08-03T11:12:27;3.03;;;1.35;;
20890;SDS011;10605;52.968;8.844;2022-08-03T11:14:56;19.10;;;1.80;;
20890;SDS011;10605;52.968;8.844;2022-08-03T11:17:29;4.05;;;1.20;;
20890;SDS011;10605;52.968;8.844;2022-08-03T11:19:56;6.53;;;1.15;;
20890;SDS011;10605;52.968;8.844;2022-08-03T11:22:22;5.68;;;1.02;;
20890;SDS011;10605;52.968;8.844;2022-08-03T11:37:35;2.20;;;1.00;;
20890;SDS011;10605;52.968;8.844;2022-08-03T11:40:34;2.25;;;1.13;;
20890;SDS011;10605;52.968;8.844;2022-08-03T11:43:04;5.63;;;1.90;;
20890;SDS011;10605;52.968;8.844;2022-08-03T11:45:31;3.33;;;1.13;;
20890;SDS011;10605;52.968;8.844;2022-08-03T11:47:59;4.18;;;1.40;;
20890;SDS011;10605;52.968;8.844;2022-08-03T11:50:39;5.93;;;1.40;;
20890;SDS011;10605;52.968;8.844;2022-08-03T11:53:11;7.65;;;1.30;;
20890;SDS011;10605;52.968;8.844;2022-08-03T11:55:39;6.28;;;1.20;;
20890;SDS011;10605;52.968;8.844;2022-08-03T11:58:07;5.72;;;1.52;;
20890;SDS011;10605;52.968;8.844;2022-08-03T12:00:33;4.43;;;1.50;;
20890;SDS011;10605;52.968;8.844;2022-08-03T12:03:00;5.32;;;1.08;;
20890;SDS011;10605;52.968;8.844;2022-08-03T12:05:34;4.50;;;1.63;;
20890;SDS011;10605;52.968;8.844;2022-08-03T12:08:06;3.38;;;1.48;;
20890;SDS011;10605;52.968;8.844;2022-08-03T12:10:33;2.47;;;1.20;;
20890;SDS011;10605;52.968;8.844;2022-08-03T12:13:00;6.15;;;1.48;;
20890;SDS011;10605;52.968;8.844;2022-08-03T12:15:31;5.10;;;1.67;;
20890;SDS011;10605;52.968;8.844;2022-08-03T12:18:01;3.75;;;1.75;;
20890;SDS011;10605;52.968;8.844;2022-08-03T12:20:28;3.95;;;1.60;;
20890;SDS011;10605;52.968;8.844;2022-08-03T12:23:05;5.03;;;1.63;;
20890;SDS011;10605;52.968;8.844;2022-08-03T12:25:32;2.83;;;1.80;;
20890;SDS011;10605;52.968;8.844;2022-08-03T12:30:38;6.80;;;1.95;;
20890;SDS011;10605;52.968;8.844;2022-08-03T12:33:14;7.70;;;1.58;;
20890;SDS011;10605;52.968;8.844;2022-08-03T12:36:04;1.50;;;1.25;;
20890;SDS011;10605;52.968;8.844;2022-08-03T12:38:36;3.15;;;1.38;;
20890;SDS011;10605;52.968;8.844;2022-08-03T12:41:04;4.25;;;1.38;;
20890;SDS011;10605;52.968;8.844;2022-08-03T12:43:32;7.88;;;2.08;;
20890;SDS011;10605;52.968;8.844;2022-08-03T12:46:05;5.40;;;1.40;;
20890;SDS011;10605;52.968;8.844;2022-08-03T12:48:32;6.40;;;1.42;;
20890;SDS011;10605;52.968;8.844;2022-08-03T12:51:10;5.72;;;1.90;;
20890;SDS011;10605;52.968;8.844;2022-08-03T12:53:36;4.65;;;2.03;;
20890;SDS011;10605;52.968;8.844;2022-08-03T12:56:04;5.18;;;1.90;;
20890;SDS011;10605;52.968;8.844;2022-08-03T12:58:31;4.68;;;1.77;;
20890;SDS011;10605;52.968;8.844;2022-08-03T13:01:12;2.10;;;1.33;;
20890;SDS011;10605;52.968;8.844;2022-08-03T13:03:41;4.32;;;1.67;;
20890;SDS011;10605;52.968;8.844;2022-08-03T13:06:14;5.35;;;1.90;;
20890;SDS011;10605;52.968;8.844;2022-08-03T13:08:41;4.63;;;1.60;;
20890;SDS011;10605;52.968;8.844;2022-08-03T13:11:20;9.93;;;1.90;;
20890;SDS011;10605;52.968;8.844;2022-08-03T13:13:51;10.18;;;1.67;;
20890;SDS011;10605;52.968;8.844;2022-08-03T13:16:18;5.75;;;1.95;;
20890;SDS011;10605;52.968;8.844;2022-08-03T13:18:46;6.13;;;1.40;;
20890;SDS011;10605;52.968;8.844;2022-08-03T13:21:15;7.38;;;1.75;;
20890;SDS011;10605;52.968;8.844;2022-08-03T13:23:42;5.28;;;1.73;;
20890;SDS011;10605;52.968;8.844;2022-08-03T13:26:08;8.82;;;1.48;;
20890;SDS011;10605;52.968;8.844;2022-08-03T13:32:02;4.10;;;1.42;;
20890;SDS011;10605;52.968;8.844;2022-08-03T13:34:29;10.38;;;1.58;;
20890;SDS011;10605;52.968;8.844;2022-08-03T13:36:55;8.18;;;1.77;;
20890;SDS011;10605;52.968;8.844;2022-08-03T13:39:20;6.13;;;1.67;;
20890;SDS011;10605;52.968;8.844;2022-08-03T13:41:46;9.65;;;1.75;;
20890;SDS011;10605;52.968;8.844;2022-08-03T13:44:12;2.65;;;1.52;;
20890;SDS011;10605;52.968;8.844;2022-08-03T13:46:38;6.60;;;1.80;;
20890;SDS011;10605;52.968;8.844;2022-08-03T13:49:04;3.45;;;1.52;;
20890;SDS011;10605;52.968;8.844;2022-08-03T13:51:30;10.35;;;2.20;;
20890;SDS011;10605;52.968;8.844;2022-08-03T13:53:56;3.65;;;1.33;;
20890;SDS011;10605;52.968;8.844;2022-08-03T13:56:24;5.10;;;1.67;;
20890;SDS011;10605;52.968;8.844;2022-08-03T13:58:53;7.15;;;1.92;;
20890;SDS011;10605;52.968;8.844;2022-08-03T14:01:19;10.85;;;1.85;;
20890;SDS011;10605;52.968;8.844;2022-08-03T14:03:45;9.75;;;1.50;;
20890;SDS011;10605;52.968;8.844;2022-08-03T14:06:14;8.65;;;1.73;;
20890;SDS011;10605;52.968;8.844;2022-08-03T14:08:40;4.88;;;1.75;;
20890;SDS011;10605;52.968;8.844;2022-08-03T14:11:05;5.43;;;1.75;;
20890;SDS011;10605;52.968;8.844;2022-08-03T14:13:31;7.07;;;1.95;;
20890;SDS011;10605;52.968;8.844;2022-08-03T14:15:57;13.90;;;1.98;;
20890;SDS011;10605;52.968;8.844;2022-08-03T14:18:22;6.88;;;1.58;;
20890;SDS011;10605;52.968;8.844;2022-08-03T14:20:48;5.97;;;1.58;;
20890;SDS011;10605;52.968;8.844;2022-08-03T14:23:14;6.70;;;2.10;;
20890;SDS011;10605;52.968;8.844;2022-08-03T14:25:40;6.10;;;2.10;;
20890;SDS011;10605;52.968;8.844;2022-08-03T14:28:06;7.63;;;1.83;;
20890;SDS011;10605;52.968;8.844;2022-08-03T14:30:32;8.05;;;1.63;;
20890;SDS011;10605;52.968;8.844;2022-08-03T14:32:58;5.65;;;2.00;;
20890;SDS011;10605;52.968;8.844;2022-08-03T14:35:24;5.53;;;1.80;;
20890;SDS011;10605;52.968;8.844;2022-08-03T14:37:50;9.00;;;2.10;;
20890;SDS011;10605;52.968;8.844;2022-08-03T14:40:16;8.23;;;1.67;;
20890;SDS011;10605;52.968;8.844;2022-08-03T14:42:47;2.58;;;1.63;;
20890;SDS011;10605;52.968;8.844;2022-08-03T14:45:13;5.82;;;2.08;;
20890;SDS011;10605;52.968;8.844;2022-08-03T14:47:39;4.78;;;1.63;;
20890;SDS011;10605;52.968;8.844;2022-08-03T14:50:05;4.72;;;1.98;;
20890;SDS011;10605;52.968;8.844;2022-08-03T14:52:34;10.65;;;1.83;;
20890;SDS011;10605;52.968;8.844;2022-08-03T14:55:02;7.38;;;1.85;;
20890;SDS011;10605;52.968;8.844;2022-08-03T14:57:28;9.90;;;1.77;;
20890;SDS011;10605;52.968;8.844;2022-08-03T14:59:54;16.85;;;2.10;;
20890;SDS011;10605;52.968;8.844;2022-08-03T15:02:20;8.93;;;2.00;;
20890;SDS011;10605;52.968;8.844;2022-08-03T15:04:45;5.03;;;1.65;;
20890;SDS011;10605;52.968;8.844;2022-08-03T15:07:11;5.35;;;2.00;;
20890;SDS011;10605;52.968;8.844;2022-08-03T15:09:37;10.18;;;1.70;;
20890;SDS011;10605;52.968;8.844;2022-08-03T15:12:03;8.35;;;1.67;;
20890;SDS011;10605;52.968;8.844;2022-08-03T15:14:30;4.35;;;2.08;;
20890;SDS011;10605;52.968;8.844;2022-08-03T15:16:57;10.07;;;1.83;;
20890;SDS011;10605;52.968;8.844;2022-08-03T15:19:23;9.77;;;1.80;;
20890;SDS011;10605;52.968;8.844;2022-08-03T15:21:49;7.07;;;1.88;;
20890;SDS011;10605;52.968;8.844;2022-08-03T15:24:15;9.32;;;1.83;;
20890;SDS011;10605;52.968;8.844;2022-08-03T15:26:40;11.25;;;2.88;;
20890;SDS011;10605;52.968;8.844;2022-08-03T15:29:06;5.22;;;1.90;;
20890;SDS011;10605;52.968;8.844;2022-08-03T15:31:33;4.00;;;1.67;;